Time;durP1;ratioP1;P1;durP2;ratioP2;P2;SDS_P1;SDS_P2;PMS_P1;PMS_P2;Temp;Humidity;BMP_temperature;BMP_pressure;BME280_temperature;BME280_humidity;BME280_pressure;Samples;Min_cycle;Max_cycle;Signal;HPM_P1;HPM_P2
2023/03/24 00:01:38;;;;;;;1.37;1.27;;;16.30;1.00;;;;;;4999600;28;20446;-81
2023/03/24 00:04:04;;;;;;;1.38;1.27;;;16.80;99.90;;;;;;5017294;28;20430;-80
2023/03/24 00:06:33;;;;;;;1.27;1.17;;;17.30;99.90;;;;;;5016428;28;20762;-81
2023/03/24 00:09:02;;;;;;;1.30;1.20;;;17.40;99.90;;;;;;5016721;28;20396;-81
2023/03/24 00:11:28;;;;;;;1.63;1.30;;;17.50;99.90;;;;;;5013160;28;20409;-81
2023/03/24 00:13:57;;;;;;;1.25;1.13;;;17.70;99.90;;;;;;5024456;28;20401;-81
2023/03/24 00:16:23;;;;;;;1.90;1.48;;;17.80;99.90;;;;;;5015976;28;20408;-81
2023/03/24 00:18:51;;;;;;;1.65;1.45;;;17.50;99.90;;;;;;5016572;28;20943;-81
2023/03/24 00:21:20;;;;;;;1.40;1.30;;;17.20;99.90;;;;;;5016937;28;20388;-81
2023/03/24 00:23:46;;;;;;;1.90;1.27;;;16.90;99.90;;;;;;5016480;28;20728;-81
2023/03/24 00:26:15;;;;;;;1.90;1.35;;;16.80;99.90;;;;;;5016343;28;20862;-81
2023/03/24 00:28:44;;;;;;;2.30;1.20;;;16.60;99.90;;;;;;5017015;28;20475;-81
2023/03/24 00:31:13;;;;;;;1.48;1.30;;;16.60;99.90;;;;;;4998781;28;20401;-81
2023/03/24 00:33:39;;;;;;;1.40;1.30;;;16.50;99.90;;;;;;4998138;28;20403;-81
2023/03/24 00:36:07;;;;;;;1.80;1.50;;;16.50;99.90;;;;;;5016010;28;20902;-81
2023/03/24 00:38:33;;;;;;;1.73;1.52;;;16.50;99.90;;;;;;4997799;28;20476;-81
2023/03/24 00:41:00;;;;;;;1.33;1.23;;;16.60;99.90;;;;;;4998201;28;20393;-81
2023/03/24 00:43:27;;;;;;;1.55;1.40;;;16.80;99.90;;;;;;5015823;28;20389;-81
2023/03/24 00:46:00;;;;;;;1.45;1.10;;;16.70;99.90;;;;;;4997296;28;20389;-81
2023/03/24 00:48:27;;;;;;;1.13;1.02;;;17.10;99.90;;;;;;5015611;28;20421;-81
2023/03/24 00:50:53;;;;;;;1.50;1.10;;;17.60;99.90;;;;;;5015762;28;20381;-81
2023/03/24 00:53:21;;;;;;;1.23;1.10;;;18.00;99.90;;;;;;5015193;28;20389;-81
2023/03/24 00:55:48;;;;;;;1.33;1.23;;;18.10;99.90;;;;;;4997400;28;20413;-80
2023/03/24 00:58:20;;;;;;;2.33;1.10;;;17.90;99.90;;;;;;5015214;28;20871;-81
2023/03/24 01:00:48;;;;;;;1.20;1.10;;;17.90;99.90;;;;;;4997755;28;20424;-81
2023/03/24 01:03:14;;;;;;;1.65;1.40;;;17.70;99.90;;;;;;4997635;28;20397;-80
2023/03/24 01:05:41;;;;;;;1.60;1.50;;;17.60;99.90;;;;;;4997368;28;20423;-81
2023/03/24 01:08:08;;;;;;;1.60;1.33;;;17.40;99.90;;;;;;4997000;28;20416;-80
2023/03/24 01:10:41;;;;;;;1.55;1.45;;;17.60;99.90;;;;;;4997754;28;20487;-82
2023/03/24 01:13:09;;;;;;;1.40;1.30;;;17.60;99.90;;;;;;4997145;28;20389;-81
2023/03/24 01:15:35;;;;;;;1.95;1.60;;;17.60;99.90;;;;;;5016961;28;20981;-81
2023/03/24 01:18:01;;;;;;;1.90;1.40;;;17.60;99.90;;;;;;5014799;28;20419;-81
2023/03/24 01:20:31;;;;;;;1.88;1.60;;;17.40;99.90;;;;;;5015444;28;20417;-81
2023/03/24 01:23:01;;;;;;;1.88;1.60;;;17.10;99.90;;;;;;5016122;28;20416;-81
2023/03/24 01:25:28;;;;;;;2.20;1.50;;;17.10;99.90;;;;;;5016119;28;20980;-80
2023/03/24 01:27:53;;;;;;;1.60;1.50;;;16.90;99.90;;;;;;4997443;28;20400;-81
2023/03/24 01:30:23;;;;;;;1.90;1.80;;;16.60;99.90;;;;;;5038097;22;20448;-85
2023/03/24 01:32:49;;;;;;;2.30;1.80;;;16.40;99.90;;;;;;5025914;28;20410;-85
2023/03/24 01:35:15;;;;;;;1.70;1.60;;;16.30;99.90;;;;;;5027781;28;20407;-85
2023/03/24 01:37:41;;;;;;;1.87;1.77;;;15.90;1.00;;;;;;5027060;28;20485;-85
2023/03/24 01:40:08;;;;;;;2.27;1.77;;;15.80;1.00;;;;;;5045173;28;20445;-84
2023/03/24 01:42:35;;;;;;;2.20;1.70;;;15.80;1.00;;;;;;5045485;28;20885;-85
2023/03/24 01:45:21;;;;;;;2.42;2.00;;;15.90;1.00;;;;;;5029018;28;20869;-85
2023/03/24 01:47:48;;;;;;;1.90;1.70;;;15.50;1.00;;;;;;5027841;28;20451;-85
2023/03/24 01:50:13;;;;;;;3.28;2.40;;;15.40;1.00;;;;;;5027196;28;20780;-85
2023/03/24 01:52:41;;;;;;;2.60;2.00;;;15.30;7.80;;;;;;5027456;28;20391;-86
2023/03/24 01:55:14;;;;;;;1.97;1.87;;;15.30;99.90;;;;;;5045764;28;20454;-85
2023/03/24 01:57:54;;;;;;;2.17;1.98;;;15.20;99.90;;;;;;5027382;28;20495;-84
2023/03/24 02:00:20;;;;;;;2.92;2.17;;;15.00;86.70;;;;;;5045740;28;20391;-85
2023/03/24 02:02:53;;;;;;;2.08;1.83;;;15.00;1.00;;;;;;5045861;28;20395;-85
2023/03/24 02:05:21;;;;;;;2.78;1.90;;;15.30;99.90;;;;;;5026092;28;20391;-86
2023/03/24 02:08:14;;;;;;;1.92;1.75;;;15.20;99.90;;;;;;5025351;28;20442;-85
2023/03/24 02:10:40;;;;;;;2.25;1.70;;;15.20;99.90;;;;;;5050741;28;20404;-85
2023/03/24 02:13:06;;;;;;;1.70;1.40;;;15.30;99.90;;;;;;5048107;28;20402;-85
2023/03/24 02:15:40;;;;;;;1.77;1.30;;;16.00;1.00;;;;;;5025748;28;20780;-86
2023/03/24 02:18:17;;;;;;;1.63;1.10;;;16.90;99.90;;;;;;5043261;28;20402;-85
2023/03/24 02:21:07;;;;;;;1.33;1.23;;;17.80;99.90;;;;;;5043527;28;20398;-86
2023/03/24 02:23:33;;;;;;;2.10;1.20;;;17.90;99.90;;;;;;5025987;28;20391;-85
2023/03/24 02:26:20;;;;;;;1.20;1.00;;;18.20;99.90;;;;;;5040918;28;20391;-86
2023/03/24 02:28:56;;;;;;;1.20;1.10;;;18.20;99.90;;;;;;5041082;28;20387;-86
2023/03/24 02:31:49;;;;;;;1.17;1.07;;;17.90;99.90;;;;;;5023553;28;20395;-86
2023/03/24 02:34:42;;;;;;;1.00;0.90;;;17.70;99.90;;;;;;5024086;28;20399;-85
2023/03/24 02:37:43;;;;;;;1.10;1.00;;;17.90;99.90;;;;;;5023645;28;20410;-85
2023/03/24 02:40:30;;;;;;;1.13;1.00;;;18.40;99.90;;;;;;5025167;28;20379;-85
2023/03/24 02:43:30;;;;;;;1.00;0.90;;;18.40;99.90;;;;;;5025968;28;20383;-85
2023/03/24 02:46:05;;;;;;;1.00;0.90;;;18.30;99.90;;;;;;5008862;28;20391;-85
2023/03/24 02:48:40;;;;;;;1.20;1.10;;;18.40;99.90;;;;;;5044333;28;20386;-86
2023/03/24 02:51:39;;;;;;;1.60;1.30;;;18.40;99.90;;;;;;5025919;28;20441;-86
2023/03/24 02:54:30;;;;;;;2.30;1.20;;;18.50;99.90;;;;;;5008486;28;20383;-86
2023/03/24 02:57:05;;;;;;;1.48;1.10;;;18.20;99.90;;;;;;5025464;28;20494;-86
2023/03/24 02:59:40;;;;;;;0.95;0.85;;;18.30;99.90;;;;;;5042644;28;20425;-86
2023/03/24 03:02:16;;;;;;;1.10;1.00;;;18.20;99.90;;;;;;5040953;28;20430;-85
2023/03/24 03:04:52;;;;;;;1.30;1.00;;;18.20;99.90;;;;;;5027264;28;20395;-84
2023/03/24 03:07:22;;;;;;;1.25;1.15;;;18.10;99.90;;;;;;5055441;28;20462;-83
2023/03/24 03:09:55;;;;;;;1.10;0.85;;;18.10;99.90;;;;;;5038549;28;20387;-84
2023/03/24 03:12:23;;;;;;;1.00;0.90;;;19.60;99.90;;;;;;5051960;28;20487;-86
2023/03/24 03:14:54;;;;;;;1.45;1.10;;;18.20;99.90;;;;;;5025258;28;20433;-85
2023/03/24 03:17:32;;;;;;;1.00;0.90;;;18.10;99.90;;;;;;5042011;28;20820;-85
2023/03/24 03:20:04;;;;;;;0.85;0.82;;;18.10;99.90;;;;;;5024724;28;20380;-85
2023/03/24 03:22:37;;;;;;;1.40;1.00;;;19.20;99.90;;;;;;5028061;28;20439;-85
2023/03/24 03:25:04;;;;;;;1.20;1.10;;;18.50;99.90;;;;;;5027086;28;20399;-85
2023/03/24 03:27:37;;;;;;;2.50;1.00;;;17.80;99.90;;;;;;5041989;28;20401;-85
2023/03/24 03:30:09;;;;;;;1.17;1.00;;;17.90;99.90;;;;;;5025330;28;20889;-85
2023/03/24 03:32:42;;;;;;;1.10;0.70;;;17.80;99.90;;;;;;5043357;28;20405;-86
2023/03/24 03:35:21;;;;;;;1.90;1.00;;;17.60;99.90;;;;;;5036182;28;20418;-84
2023/03/24 03:38:22;;;;;;;1.30;0.90;;;17.40;99.90;;;;;;5027747;28;21100;-86
2023/03/24 03:40:56;;;;;;;1.20;1.05;;;17.60;99.90;;;;;;5025265;28;20410;-83
2023/03/24 03:43:24;;;;;;;1.13;0.90;;;17.60;99.90;;;;;;5026087;28;20406;-84
2023/03/24 03:45:50;;;;;;;1.10;0.80;;;17.60;99.90;;;;;;5025670;28;20407;-85
2023/03/24 03:48:16;;;;;;;1.20;1.10;;;17.20;1.00;;;;;;5045079;28;20395;-84
2023/03/24 03:50:42;;;;;;;1.80;1.15;;;17.10;1.00;;;;;;5044470;28;20395;-84
2023/03/24 03:53:10;;;;;;;1.70;0.80;;;16.90;1.00;;;;;;5028134;28;20437;-85
2023/03/24 03:55:35;;;;;;;1.08;0.90;;;16.90;1.00;;;;;;5027294;28;20413;-85
2023/03/24 03:58:03;;;;;;;2.30;1.20;;;17.20;1.00;;;;;;5043034;28;20482;-85
2023/03/24 04:00:29;;;;;;;1.50;1.00;;;17.30;1.00;;;;;;5042343;28;20387;-84
2023/03/24 04:03:24;;;;;;;1.80;1.30;;;17.20;1.00;;;;;;5039983;28;20391;-83
2023/03/24 04:06:00;;;;;;;3.85;1.60;;;16.90;1.00;;;;;;5048308;28;20399;-83
2023/03/24 04:08:43;;;;;;;1.58;1.40;;;16.60;99.90;;;;;;5030355;28;20822;-85
2023/03/24 04:11:38;;;;;;;1.60;1.50;;;16.30;34.50;;;;;;5025294;28;20443;-86
2023/03/24 04:14:11;;;;;;;2.88;2.25;;;16.00;1.00;;;;;;5041746;28;20902;-80
2023/03/24 04:16:52;;;;;;;2.67;2.07;;;15.70;1.00;;;;;;5039684;28;20889;-85
2023/03/24 04:19:37;;;;;;;4.90;2.63;;;15.20;1.00;;;;;;5056845;28;20429;-85
2023/03/24 04:22:22;;;;;;;3.15;2.85;;;14.80;1.00;;;;;;5056886;28;20374;-82
2023/03/24 04:25:10;;;;;;;4.30;2.78;;;14.40;70.00;;;;;;5012902;28;20515;-82
2023/03/24 04:27:45;;;;;;;4.28;3.30;;;14.20;99.90;;;;;;5023150;28;20406;-82
2023/03/24 04:30:24;;;;;;;3.70;3.22;;;13.90;99.90;;;;;;5040984;28;20477;-82
2023/03/24 04:33:01;;;;;;;3.30;3.00;;;13.80;99.90;;;;;;5023436;28;20403;-81
2023/03/24 04:35:33;;;;;;;5.60;3.80;;;13.80;99.90;;;;;;5044164;28;20410;-80
2023/03/24 04:38:11;;;;;;;5.80;3.08;;;13.70;99.90;;;;;;5042020;28;20395;-82
2023/03/24 04:40:40;;;;;;;4.13;3.50;;;13.70;99.90;;;;;;5023263;28;20401;-82
2023/03/24 04:43:12;;;;;;;4.00;3.70;;;13.70;99.90;;;;;;5042822;28;20432;-81
2023/03/24 04:45:38;;;;;;;4.07;3.65;;;13.50;99.90;;;;;;5040935;28;20415;-80
2023/03/24 04:48:07;;;;;;;4.72;3.92;;;13.50;99.90;;;;;;5042127;28;20403;-84
2023/03/24 04:50:38;;;;;;;4.38;3.97;;;13.40;99.90;;;;;;5023838;28;20399;-82
2023/03/24 04:53:06;;;;;;;3.90;3.60;;;13.40;99.90;;;;;;5042842;28;20445;-82
2023/03/24 04:56:01;;;;;;;4.30;3.90;;;13.40;99.90;;;;;;5044368;28;20403;-84
2023/03/24 04:58:28;;;;;;;4.18;3.88;;;13.30;99.90;;;;;;5045386;28;20423;-82
2023/03/24 05:00:55;;;;;;;4.03;3.72;;;13.40;99.90;;;;;;5048737;28;20391;-83
2023/03/24 05:03:20;;;;;;;4.20;3.80;;;13.40;99.90;;;;;;5026113;28;20430;-83
2023/03/24 05:05:48;;;;;;;5.20;4.33;;;13.40;99.90;;;;;;5041502;28;20398;-84
2023/03/24 05:08:15;;;;;;;4.10;3.70;;;13.40;99.90;;;;;;5040066;28;20395;-83
2023/03/24 05:10:41;;;;;;;5.80;3.88;;;13.40;99.90;;;;;;5040226;28;20479;-84
2023/03/24 05:13:07;;;;;;;4.27;3.87;;;13.30;99.90;;;;;;5040818;28;20387;-85
2023/03/24 05:15:34;;;;;;;4.38;3.97;;;14.00;99.90;;;;;;5020701;28;20407;-84
2023/03/24 05:18:00;;;;;;;4.43;3.90;;;13.40;99.90;;;;;;5020848;28;20395;-84
2023/03/24 05:20:26;;;;;;;5.13;4.30;;;13.40;99.90;;;;;;5020805;28;20414;-84
2023/03/24 05:22:52;;;;;;;4.20;3.90;;;13.30;99.90;;;;;;5040432;28;20391;-84
2023/03/24 05:25:19;;;;;;;4.20;3.80;;;13.20;99.90;;;;;;5021581;28;20514;-83
2023/03/24 05:27:45;;;;;;;4.20;3.80;;;13.40;99.90;;;;;;5028905;28;20402;-82
2023/03/24 05:30:11;;;;;;;4.50;4.10;;;13.30;99.90;;;;;;5043641;28;20394;-83
2023/03/24 05:32:37;;;;;;;4.70;4.30;;;13.30;99.90;;;;;;5043441;28;20440;-82
2023/03/24 05:35:04;;;;;;;5.30;4.27;;;13.30;99.90;;;;;;5019235;28;20399;-84
2023/03/24 05:37:29;;;;;;;4.70;4.30;;;13.30;99.90;;;;;;5017901;28;20746;-83
2023/03/24 05:39:55;;;;;;;5.22;4.72;;;13.50;99.90;;;;;;5017961;28;20395;-84
2023/03/24 05:42:21;;;;;;;5.47;4.35;;;13.50;99.90;;;;;;5017884;28;20383;-84
2023/03/24 05:44:46;;;;;;;5.95;4.40;;;13.50;99.90;;;;;;5017949;28;20445;-84
2023/03/24 05:47:14;;;;;;;5.70;4.40;;;13.50;99.90;;;;;;5019584;28;20391;-85
2023/03/24 05:49:44;;;;;;;4.78;4.38;;;13.50;99.90;;;;;;5039107;28;20465;-84
2023/03/24 05:52:10;;;;;;;4.70;4.30;;;13.40;99.90;;;;;;5051573;28;20418;-83
2023/03/24 05:54:38;;;;;;;4.85;4.25;;;13.50;99.90;;;;;;5051884;28;20383;-84
2023/03/24 05:57:06;;;;;;;4.35;3.95;;;13.40;99.90;;;;;;5026449;28;20399;-85
2023/03/24 05:59:32;;;;;;;4.43;4.00;;;13.50;99.90;;;;;;5024282;28;20394;-85
2023/03/24 06:01:58;;;;;;;4.72;4.30;;;13.50;99.90;;;;;;5041411;28;20391;-86
2023/03/24 06:04:24;;;;;;;4.87;4.20;;;13.40;99.90;;;;;;5023617;28;20419;-86
2023/03/24 06:06:49;;;;;;;5.40;4.77;;;13.30;99.90;;;;;;5023606;28;20407;-85
2023/03/24 06:09:15;;;;;;;5.23;4.70;;;13.20;99.90;;;;;;5024623;28;20403;-85
2023/03/24 06:11:42;;;;;;;5.83;5.00;;;13.00;99.90;;;;;;5036730;28;20397;-85
2023/03/24 06:14:08;;;;;;;6.10;5.50;;;13.00;99.90;;;;;;5057831;28;20394;-86
2023/03/24 06:16:39;;;;;;;5.93;5.33;;;12.90;99.90;;;;;;5025658;28;20490;-86
2023/03/24 06:19:05;;;;;;;5.75;5.15;;;12.90;99.90;;;;;;5018545;28;20399;-86
2023/03/24 06:21:32;;;;;;;7.33;6.50;;;12.80;99.90;;;;;;5019645;28;20850;-87
2023/03/24 06:23:58;;;;;;;6.70;6.00;;;12.70;99.90;;;;;;5026503;28;20402;-86
2023/03/24 06:26:25;;;;;;;7.03;6.43;;;14.20;99.90;;;;;;5032900;28;20405;-87
2023/03/24 06:28:50;;;;;;;7.38;6.40;;;12.60;99.90;;;;;;5016866;28;20395;-88
2023/03/24 06:31:20;;;;;;;6.70;6.10;;;13.00;99.90;;;;;;5038097;28;20410;-86
2023/03/24 06:33:49;;;;;;;7.40;6.80;;;12.50;99.90;;;;;;5039878;28;20897;-85
2023/03/24 06:36:15;;;;;;;6.82;6.13;;;12.50;99.90;;;;;;5038314;28;20954;-86
2023/03/24 06:38:54;;;;;;;6.20;5.67;;;12.60;99.90;;;;;;5034504;28;20402;-85
2023/03/24 06:41:22;;;;;;;9.90;6.50;;;12.60;99.90;;;;;;5038773;28;20379;-86
2023/03/24 06:43:48;;;;;;;7.13;6.43;;;12.80;99.90;;;;;;5019683;28;20395;-86
2023/03/24 06:46:22;;;;;;;6.90;5.95;;;12.50;99.90;;;;;;5018075;28;20463;-86
2023/03/24 06:48:50;;;;;;;6.75;6.05;;;12.50;99.90;;;;;;5021412;28;20406;-86
2023/03/24 06:51:20;;;;;;;7.30;5.90;;;14.30;99.90;;;;;;5037945;28;20393;-86
2023/03/24 06:53:49;;;;;;;6.30;5.32;;;12.60;99.90;;;;;;5020906;28;20399;-86
2023/03/24 06:56:17;;;;;;;6.40;5.80;;;12.70;99.90;;;;;;5033140;28;20387;-86
2023/03/24 06:58:46;;;;;;;7.13;5.60;;;12.60;99.90;;;;;;5041190;28;20383;-86
2023/03/24 07:01:11;;;;;;;6.95;5.30;;;12.60;99.90;;;;;;5038008;28;20392;-85
2023/03/24 07:03:43;;;;;;;6.60;6.00;;;12.60;99.90;;;;;;5036094;28;20399;-86
2023/03/24 07:06:09;;;;;;;6.30;5.80;;;12.60;99.90;;;;;;5018752;28;20769;-86
2023/03/24 07:08:35;;;;;;;6.60;5.90;;;12.60;99.90;;;;;;5038244;28;20433;-86
2023/03/24 07:11:01;;;;;;;7.00;6.30;;;12.60;99.90;;;;;;5036259;28;20444;-86
2023/03/24 07:13:27;;;;;;;6.40;5.50;;;12.50;99.90;;;;;;5035736;28;20430;-86
2023/03/24 07:15:53;;;;;;;6.00;5.40;;;12.80;99.90;;;;;;5035943;28;20497;-86
2023/03/24 07:18:19;;;;;;;6.10;5.60;;;12.50;99.90;;;;;;5019536;28;20406;-86
2023/03/24 07:20:45;;;;;;;6.28;5.78;;;12.50;99.90;;;;;;5019717;28;20399;-85
2023/03/24 07:23:11;;;;;;;7.45;5.65;;;12.50;99.90;;;;;;5019516;28;20402;-85
2023/03/24 07:25:40;;;;;;;5.95;5.35;;;13.00;99.90;;;;;;5019344;28;20556;-85
2023/03/24 07:28:15;;;;;;;5.10;4.57;;;13.30;99.90;;;;;;5038221;28;20415;-86
2023/03/24 07:30:41;;;;;;;5.05;4.43;;;13.00;99.90;;;;;;5042453;22;20386;-89
2023/03/24 07:33:09;;;;;;;4.38;3.92;;;12.60;99.90;;;;;;5014375;28;20488;-89
2023/03/24 07:35:35;;;;;;;5.07;3.72;;;12.90;99.90;;;;;;4999941;28;20407;-89
2023/03/24 07:38:01;;;;;;;4.47;4.07;;;13.40;99.90;;;;;;4996066;28;20421;-90
2023/03/24 07:40:29;;;;;;;4.22;3.85;;;13.00;99.90;;;;;;4993778;28;20400;-89
2023/03/24 07:42:54;;;;;;;4.38;3.60;;;12.70;99.90;;;;;;5021025;28;20381;-88
2023/03/24 07:45:20;;;;;;;4.37;3.97;;;12.60;99.90;;;;;;5003652;28;20502;-87
2023/03/24 07:47:46;;;;;;;4.90;3.67;;;12.60;99.90;;;;;;4976880;28;20485;-88
2023/03/24 07:50:13;;;;;;;4.80;3.50;;;12.60;99.90;;;;;;4991971;28;20914;-87
2023/03/24 07:52:40;;;;;;;3.95;3.65;;;12.60;99.90;;;;;;4974690;28;20398;-87
2023/03/24 07:55:09;;;;;;;4.20;3.70;;;12.50;99.90;;;;;;4975786;28;20394;-88
2023/03/24 07:57:36;;;;;;;3.45;3.15;;;12.50;99.90;;;;;;4974923;28;20425;-88
2023/03/24 08:00:09;;;;;;;5.45;3.60;;;12.50;99.90;;;;;;4975197;28;20400;-85
2023/03/24 08:02:35;;;;;;;3.83;2.90;;;12.50;99.90;;;;;;4995302;28;20505;-88
2023/03/24 08:05:04;;;;;;;4.90;4.00;;;12.60;99.90;;;;;;4978356;28;20422;-87
2023/03/24 08:07:30;;;;;;;4.25;2.85;;;12.60;99.90;;;;;;4978364;28;20486;-87
2023/03/24 08:09:55;;;;;;;3.25;2.95;;;12.60;99.90;;;;;;4991087;28;20406;-88
2023/03/24 08:12:21;;;;;;;4.97;3.80;;;12.60;99.90;;;;;;5005947;28;20402;-87
2023/03/24 08:14:55;;;;;;;4.68;3.10;;;12.60;99.90;;;;;;5000977;28;20394;-87
2023/03/24 08:17:21;;;;;;;3.72;2.92;;;12.60;99.90;;;;;;5000886;28;20400;-88
2023/03/24 08:19:47;;;;;;;4.53;3.30;;;12.70;99.90;;;;;;5000394;28;20446;-86
2023/03/24 08:22:12;;;;;;;3.10;2.80;;;12.70;99.90;;;;;;5000064;28;20420;-87
2023/03/24 08:24:38;;;;;;;3.78;3.20;;;12.70;99.90;;;;;;4999909;28;20394;-87
2023/03/24 08:27:06;;;;;;;3.70;2.70;;;12.80;99.90;;;;;;5001451;28;20912;-86
2023/03/24 08:29:35;;;;;;;2.70;2.15;;;12.90;99.90;;;;;;4990404;28;20386;-87
2023/03/24 08:32:01;;;;;;;2.70;2.30;;;12.90;99.90;;;;;;5008552;28;20436;-87
2023/03/24 08:34:27;;;;;;;2.80;2.03;;;13.10;99.90;;;;;;4993042;28;20419;-87
2023/03/24 08:36:52;;;;;;;2.40;2.20;;;13.10;99.90;;;;;;5007777;28;20406;-87
2023/03/24 08:39:19;;;;;;;1.90;1.70;;;13.20;99.90;;;;;;5009618;28;20405;-89
2023/03/24 08:41:45;;;;;;;1.70;1.60;;;13.30;99.90;;;;;;4989485;28;20392;-88
2023/03/24 08:44:14;;;;;;;1.65;1.50;;;13.30;99.90;;;;;;5001813;28;20492;-88
2023/03/24 08:46:39;;;;;;;2.30;1.63;;;13.40;99.90;;;;;;4987286;28;20391;-89
2023/03/24 08:49:05;;;;;;;1.50;1.40;;;13.40;99.90;;;;;;4985080;28;20432;-89
2023/03/24 08:51:31;;;;;;;1.73;1.30;;;14.40;99.90;;;;;;4985247;28;20391;-88
2023/03/24 08:53:57;;;;;;;3.03;1.70;;;13.50;99.90;;;;;;4978740;28;20394;-88
2023/03/24 08:56:23;;;;;;;2.30;1.65;;;13.60;99.90;;;;;;4979365;28;20433;-87
2023/03/24 08:58:50;;;;;;;3.63;1.20;;;13.60;99.90;;;;;;4997136;28;20426;-90
2023/03/24 09:01:19;;;;;;;1.90;1.70;;;14.10;99.90;;;;;;4980023;28;20409;-87
2023/03/24 09:03:45;;;;;;;1.65;1.52;;;13.50;99.90;;;;;;4998247;28;20931;-88
2023/03/24 09:06:12;;;;;;;1.90;1.80;;;13.70;99.90;;;;;;5012667;28;20433;-90
2023/03/24 09:08:38;;;;;;;1.70;1.60;;;13.90;97.80;;;;;;5001210;28;20410;-88
2023/03/24 09:11:15;;;;;;;1.80;1.70;;;13.80;99.90;;;;;;5006679;28;20410;-89
2023/03/24 09:13:41;;;;;;;2.30;1.70;;;13.80;99.90;;;;;;4995222;28;20909;-86
2023/03/24 09:16:07;;;;;;;1.65;1.45;;;13.90;99.90;;;;;;4978156;28;20505;-86
2023/03/24 09:18:33;;;;;;;1.60;1.50;;;13.80;90.60;;;;;;4977415;28;20429;-86
2023/03/24 09:20:59;;;;;;;1.58;1.48;;;13.90;17.30;;;;;;4996458;28;20386;-85
2023/03/24 09:23:24;;;;;;;1.80;1.50;;;14.10;2.30;;;;;;5004000;28;20908;-87
2023/03/24 09:25:52;;;;;;;1.90;1.40;;;14.20;1.00;;;;;;4992950;28;20411;-86
2023/03/24 09:28:21;;;;;;;1.63;1.20;;;14.20;1.00;;;;;;4995938;28;20405;-87
2023/03/24 09:30:46;;;;;;;2.40;1.30;;;14.50;1.00;;;;;;4976642;28;20467;-86
2023/03/24 09:33:12;;;;;;;1.43;1.30;;;14.00;1.00;;;;;;4975110;28;20907;-85
2023/03/24 09:35:37;;;;;;;1.83;1.40;;;14.40;1.00;;;;;;4999821;28;20975;-87
2023/03/24 09:38:03;;;;;;;2.28;1.25;;;14.30;1.00;;;;;;4976501;28;20405;-87
2023/03/24 09:40:34;;;;;;;1.92;1.38;;;14.40;1.00;;;;;;4965976;28;20391;-88
2023/03/24 09:43:45;;;;;;;1.58;1.30;;;14.40;1.00;;;;;;4973491;28;20392;-89
2023/03/24 09:46:41;;;;;;;1.50;1.40;;;14.40;1.00;;;;;;4998022;28;20518;-88
2023/03/24 09:49:59;;;;;;;3.15;1.25;;;14.40;1.00;;;;;;4996032;28;20429;-89
2023/03/24 09:53:11;;;;;;;2.38;1.20;;;14.60;1.00;;;;;;4997623;28;20400;-88
2023/03/24 09:59:20;;;;;;;1.40;1.30;;;14.50;1.00;;;;;;4951137;29;20459;-91
2023/03/24 10:01:46;;;;;;;2.50;1.30;;;14.30;1.00;;;;;;4976986;28;20391;-87
2023/03/24 10:04:25;;;;;;;2.47;1.35;;;14.50;1.00;;;;;;5000069;28;20418;-88
2023/03/24 10:07:13;;;;;;;1.40;1.20;;;14.30;1.00;;;;;;4988655;28;20407;-87
2023/03/24 10:09:39;;;;;;;1.30;1.20;;;14.10;1.00;;;;;;4941166;28;20396;-86
2023/03/24 10:12:34;;;;;;;1.58;1.40;;;14.60;1.00;;;;;;4959356;28;20435;-86
2023/03/24 10:15:30;;;;;;;1.45;1.35;;;13.90;99.90;;;;;;4993998;28;20405;-86
2023/03/24 10:18:17;;;;;;;1.30;1.20;;;13.60;99.90;;;;;;4985196;28;20402;-88
2023/03/24 10:21:50;;;;;;;;;;;;;;;;;;;;;
2023/03/24 10:24:54;;;;;;;1.40;1.30;;;13.30;99.90;;;;;;4952228;28;20509;-88
2023/03/24 10:27:32;;;;;;;1.50;1.20;;;13.10;99.90;;;;;;4937027;29;20414;-88
2023/03/24 10:30:22;;;;;;;1.50;1.40;;;13.10;99.90;;;;;;4977145;28;20402;-91
2023/03/24 10:32:53;;;;;;;1.80;1.40;;;12.80;99.90;;;;;;4977417;28;20394;-90
2023/03/24 10:35:28;;;;;;;1.30;1.20;;;13.40;99.90;;;;;;4977431;28;20415;-90
2023/03/24 10:38:03;;;;;;;1.38;1.00;;;12.80;99.90;;;;;;4978510;28;20429;-91
2023/03/24 10:40:31;;;;;;;1.50;1.20;;;12.80;99.90;;;;;;4979597;28;20390;-91
2023/03/24 10:43:00;;;;;;;1.10;1.00;;;12.80;99.90;;;;;;4986336;28;20390;-88
2023/03/24 10:45:55;;;;;;;1.70;1.10;;;12.90;99.90;;;;;;5031078;22;20510;-92
2023/03/24 10:49:07;;;;;;;1.27;1.05;;;13.00;99.90;;;;;;5020173;28;20401;-90
2023/03/24 10:51:43;;;;;;;2.08;1.00;;;12.90;99.90;;;;;;5003931;28;20409;-90
2023/03/24 10:54:15;;;;;;;0.90;0.80;;;14.50;99.90;;;;;;4996669;28;20404;-89
2023/03/24 10:56:46;;;;;;;1.00;0.73;;;12.80;99.90;;;;;;4996533;28;20413;-89
2023/03/24 10:59:37;;;;;;;1.00;0.60;;;13.50;99.90;;;;;;4995412;28;20451;-89
2023/03/24 11:02:10;;;;;;;1.80;0.80;;;12.80;99.90;;;;;;4994919;28;20451;-89
2023/03/24 11:04:50;;;;;;;0.70;0.70;;;12.60;99.90;;;;;;4995817;28;20393;-90
2023/03/24 11:07:20;;;;;;;0.93;0.60;;;13.40;99.90;;;;;;4995902;28;20449;-89
2023/03/24 11:10:03;;;;;;;0.95;0.60;;;12.90;99.90;;;;;;4995382;28;20392;-89
2023/03/24 11:12:32;;;;;;;0.50;0.50;;;13.10;99.90;;;;;;4995693;28;20420;-89
2023/03/24 11:15:30;;;;;;;0.70;0.40;;;13.60;99.90;;;;;;5006368;28;20380;-89
2023/03/24 11:18:09;;;;;;;0.60;0.40;;;13.00;99.90;;;;;;5030849;28;20509;-88
2023/03/24 11:20:42;;;;;;;0.60;0.40;;;13.10;99.90;;;;;;4994172;28;20392;-88
2023/03/24 11:23:27;;;;;;;0.70;0.40;;;13.10;97.00;;;;;;5000315;28;20388;-88
2023/03/24 11:26:02;;;;;;;0.50;0.30;;;13.20;1.00;;;;;;4999610;28;20428;-87
2023/03/24 11:28:28;;;;;;;0.90;0.50;;;13.30;1.00;;;;;;5009721;28;20393;-89
2023/03/24 11:30:54;;;;;;;0.70;0.50;;;13.40;1.00;;;;;;5001019;28;20397;-90
2023/03/24 11:33:35;;;;;;;0.50;0.30;;;13.90;1.00;;;;;;4999654;28;20396;-90
2023/03/24 11:36:07;;;;;;;0.60;0.40;;;15.70;1.00;;;;;;4995317;28;20416;-88
2023/03/24 11:38:34;;;;;;;0.50;0.30;;;13.70;1.00;;;;;;5000090;28;20825;-90
2023/03/24 11:41:03;;;;;;;0.85;0.50;;;14.90;1.00;;;;;;5000583;28;20388;-90
2023/03/24 11:43:30;;;;;;;0.50;0.50;;;13.70;1.00;;;;;;4998795;28;20403;-89
2023/03/24 11:46:02;;;;;;;0.70;0.60;;;13.50;1.00;;;;;;4999307;28;20420;-92
2023/03/24 11:48:53;;;;;;;0.60;0.50;;;13.60;1.00;;;;;;5000389;28;20396;-89
2023/03/24 11:51:24;;;;;;;0.88;0.60;;;13.60;1.00;;;;;;4999141;28;20491;-90
2023/03/24 11:53:55;;;;;;;0.60;0.50;;;13.50;1.00;;;;;;5003157;28;20397;-90
2023/03/24 11:56:30;;;;;;;0.88;0.60;;;13.60;1.00;;;;;;5017691;28;20415;-91
2023/03/24 11:59:18;;;;;;;0.60;0.50;;;14.00;1.00;;;;;;5037919;28;20395;-91
2023/03/24 12:02:02;;;;;;;0.70;0.63;;;13.60;1.00;;;;;;5042681;28;20434;-91
2023/03/24 12:04:56;;;;;;;0.60;0.50;;;13.80;1.00;;;;;;5005861;28;20395;-89
2023/03/24 12:07:45;;;;;;;0.50;0.50;;;13.50;1.00;;;;;;4982594;28;20382;-91
2023/03/24 12:10:39;;;;;;;2.28;0.50;;;13.70;1.00;;;;;;5000661;28;20895;-92
2023/03/24 12:13:56;;;;;;;0.93;0.57;;;13.70;1.00;;;;;;5012283;28;20389;-89
2023/03/24 12:17:02;;;;;;;0.60;0.50;;;13.70;1.00;;;;;;4997492;28;20406;-90
2023/03/24 12:19:46;;;;;;;0.70;0.40;;;13.80;1.00;;;;;;4887359;29;20917;-89
2023/03/24 12:22:48;;;;;;;0.55;0.55;;;13.40;1.00;;;;;;5009945;28;20943;-90
2023/03/24 12:25:47;;;;;;;0.93;0.53;;;13.80;1.00;;;;;;5019812;28;20405;-91
2023/03/24 12:28:57;;;;;;;0.80;0.50;;;13.70;1.00;;;;;;5009945;28;20555;-92
2023/03/24 12:31:56;;;;;;;0.57;0.50;;;13.70;1.00;;;;;;5015457;28;20483;-89
2023/03/24 12:34:41;;;;;;;0.70;0.40;;;13.80;1.00;;;;;;5013495;28;20400;-90
2023/03/24 12:37:25;;;;;;;0.75;0.70;;;13.80;1.00;;;;;;5007531;28;20393;-90
2023/03/24 12:40:12;;;;;;;0.80;0.50;;;13.80;1.00;;;;;;4999828;28;20393;-90
2023/03/24 12:42:43;;;;;;;1.20;0.50;;;13.80;1.00;;;;;;4998614;28;20392;-89
2023/03/24 12:45:14;;;;;;;1.33;0.70;;;13.60;1.00;;;;;;5016087;28;20391;-87
2023/03/24 12:47:58;;;;;;;1.40;1.10;;;14.20;1.00;;;;;;4997896;28;20397;-88
2023/03/24 12:50:38;;;;;;;1.73;1.30;;;13.40;7.30;;;;;;4997937;28;20445;-87
2023/03/24 12:53:15;;;;;;;0.65;0.60;;;13.30;82.30;;;;;;4997897;28;20404;-88
2023/03/24 12:56:03;;;;;;;0.80;0.60;;;13.10;88.00;;;;;;4997260;28;20436;-87
2023/03/24 12:58:28;;;;;;;2.35;0.95;;;13.00;96.40;;;;;;4997442;28;20826;-87
2023/03/24 13:01:03;;;;;;;1.20;1.00;;;13.70;67.70;;;;;;4998180;28;20446;-88
2023/03/24 13:03:46;;;;;;;0.90;0.63;;;13.00;54.20;;;;;;4997957;28;20448;-89
2023/03/24 13:06:44;;;;;;;1.20;0.52;;;13.00;89.20;;;;;;4998786;28;20934;-91
2023/03/24 13:09:26;;;;;;;0.60;0.50;;;13.10;15.20;;;;;;4998877;28;20409;-90
2023/03/24 13:12:38;;;;;;;1.00;0.70;;;13.10;41.60;;;;;;4999613;28;20624;-90
2023/03/24 13:15:46;;;;;;;0.88;0.60;;;13.10;1.00;;;;;;4999117;28;20419;-90
2023/03/24 13:18:49;;;;;;;0.70;0.57;;;13.10;1.00;;;;;;4998839;28;20495;-88
2023/03/24 13:21:33;;;;;;;0.77;0.60;;;12.70;1.00;;;;;;4971103;28;20435;-90
2023/03/24 13:24:13;;;;;;;0.60;0.40;;;13.60;1.00;;;;;;5018617;28;20369;-90
2023/03/24 13:27:25;;;;;;;1.00;0.50;;;13.10;1.00;;;;;;5020995;28;20377;-90
2023/03/24 13:30:19;;;;;;;1.23;0.60;;;13.90;1.00;;;;;;5037593;28;20391;-90